createdAt,value
2023-01-13T00:00:53.578Z,60.08
2023-01-13T00:01:55.350Z,60.49
2023-01-13T00:02:57.119Z,60.65
2023-01-13T00:04:00.158Z,60.60
2023-01-13T00:05:01.973Z,61.08
2023-01-13T00:06:04.514Z,60.84
2023-01-13T00:07:06.270Z,60.94
2023-01-13T00:08:08.114Z,60.83
2023-01-13T00:09:09.914Z,61.00
2023-01-13T00:10:11.850Z,61.39
2023-01-13T00:11:13.611Z,60.71
2023-01-13T00:12:15.420Z,61.33
2023-01-13T00:13:17.191Z,61.45
2023-01-13T00:14:18.996Z,61.38
2023-01-13T00:15:20.790Z,61.23
2023-01-13T00:16:22.628Z,61.69
2023-01-13T00:17:24.487Z,61.77
2023-01-13T00:18:26.861Z,61.43
2023-01-13T00:19:28.661Z,61.82
2023-01-13T00:20:30.441Z,61.41
2023-01-13T00:21:32.340Z,61.74
2023-01-13T00:22:35.347Z,61.58
2023-01-13T00:23:37.363Z,61.82
2023-01-13T00:24:39.217Z,62.09
2023-01-13T00:25:40.988Z,61.72
2023-01-13T00:26:42.777Z,61.80
2023-01-13T00:27:44.558Z,61.34
2023-01-13T00:28:46.719Z,61.71
2023-01-13T00:29:48.517Z,61.57
2023-01-13T00:30:50.366Z,61.48
2023-01-13T00:31:52.222Z,61.44
2023-01-13T00:32:54.094Z,61.54
2023-01-13T00:34:00.818Z,61.71
2023-01-13T00:35:02.598Z,61.39
2023-01-13T00:36:06.325Z,61.47
2023-01-13T00:37:08.493Z,61.02
2023-01-13T00:38:10.281Z,60.79
2023-01-13T00:39:12.138Z,60.55
2023-01-13T00:40:14.241Z,60.45
2023-01-13T00:41:18.408Z,60.77
2023-01-13T00:42:38.630Z,60.93
2023-01-13T00:43:40.943Z,60.64
2023-01-13T00:44:42.708Z,60.73
2023-01-13T00:45:44.805Z,60.86
2023-01-13T00:46:46.602Z,60.97
2023-01-13T00:47:48.526Z,61.20
2023-01-13T00:48:51.760Z,61.22
2023-01-13T00:49:53.599Z,60.82
2023-01-13T00:51:04.338Z,60.87
2023-01-13T00:52:06.236Z,60.73
2023-01-13T00:53:08.046Z,60.81
2023-01-13T00:54:09.967Z,60.95
2023-01-13T00:55:11.771Z,61.24
2023-01-13T00:56:18.117Z,61.43
2023-01-13T00:57:20.031Z,61.44
2023-01-13T00:58:21.802Z,61.63
2023-01-13T00:59:23.860Z,61.59
2023-01-13T01:00:32.048Z,61.42
2023-01-13T01:01:34.026Z,61.49
2023-01-13T01:02:36.069Z,61.88
2023-01-13T01:03:38.437Z,62.33
2023-01-13T01:04:40.221Z,62.46
2023-01-13T01:05:42.051Z,62.22
2023-01-13T01:06:43.914Z,62.21
2023-01-13T01:07:45.716Z,62.60
2023-01-13T01:08:47.682Z,62.84
2023-01-13T01:09:50.107Z,62.52
2023-01-13T01:11:07.674Z,62.70
2023-01-13T01:12:09.471Z,63.08
2023-01-13T01:13:14.949Z,63.12
2023-01-13T01:14:16.723Z,63.10
2023-01-13T01:15:18.501Z,63.31
2023-01-13T01:16:22.237Z,63.01
2023-01-13T01:17:24.053Z,63.44
2023-01-13T01:18:26.291Z,63.67
2023-01-13T01:19:28.064Z,64.01
2023-01-13T01:20:29.843Z,63.70
2023-01-13T01:21:32.176Z,63.71
2023-01-13T01:22:34.053Z,63.58
2023-01-13T01:23:37.054Z,63.67
2023-01-13T01:24:38.844Z,63.42
2023-01-13T01:25:40.621Z,63.35
2023-01-13T01:26:42.544Z,62.95
2023-01-13T01:27:44.311Z,63.29
2023-01-13T01:28:46.811Z,62.93
2023-01-13T01:29:48.592Z,62.84
2023-01-13T01:30:51.500Z,63.37
2023-01-13T01:31:53.747Z,63.15
2023-01-13T01:32:57.438Z,63.27
2023-01-13T01:34:00.134Z,63.22
2023-01-13T01:35:01.918Z,63.54
2023-01-13T01:36:04.688Z,63.29
2023-01-13T01:37:06.542Z,63.34
2023-01-13T01:38:08.376Z,63.68
2023-01-13T01:39:10.595Z,63.79
2023-01-13T01:40:12.721Z,64.09
2023-01-13T01:41:20.479Z,64.05
2023-01-13T01:42:41.502Z,63.87
2023-01-13T01:43:59.532Z,63.62
2023-01-13T01:45:15.242Z,63.69
2023-01-13T01:46:17.574Z,63.29
2023-01-13T01:47:20.610Z,63.30
2023-01-13T01:48:22.392Z,63.77
2023-01-13T01:49:33.193Z,63.38
2023-01-13T01:50:36.317Z,63.45
2023-01-13T01:52:18.400Z,63.57
2023-01-13T01:53:21.161Z,63.88
2023-01-13T01:54:32.589Z,63.74
2023-01-13T01:55:37.200Z,63.44
2023-01-13T01:56:42.116Z,63.60
2023-01-13T01:57:53.462Z,63.65
2023-01-13T01:58:55.157Z,63.14
2023-01-13T02:00:01.174Z,63.28
2023-01-13T02:01:03.139Z,63.48
2023-01-13T02:02:05.257Z,63.27
2023-01-13T02:03:09.183Z,63.46
2023-01-13T02:04:25.886Z,63.47
2023-01-13T02:05:27.721Z,63.44
2023-01-13T02:06:30.254Z,63.32
2023-01-13T02:07:34.615Z,63.35
2023-01-13T02:08:40.332Z,63.37
2023-01-13T02:09:42.195Z,63.44
2023-01-13T02:10:49.119Z,63.71
2023-01-13T02:12:23.170Z,63.36
2023-01-13T02:13:24.971Z,63.47
2023-01-13T02:14:29.186Z,63.24
2023-01-13T02:15:42.467Z,64.04
2023-01-13T02:17:27.520Z,63.41
2023-01-13T02:18:45.566Z,62.93
2023-01-13T02:20:16.945Z,63.12
2023-01-13T02:21:40.418Z,63.02
2023-01-13T02:23:07.346Z,63.08
2023-01-13T02:24:54.191Z,63.49
2023-01-13T02:26:14.976Z,63.34
2023-01-13T02:27:19.854Z,63.32
2023-01-13T02:29:01.148Z,63.38
2023-01-13T02:30:59.574Z,63.31
2023-01-13T02:32:13.805Z,63.60
2023-01-13T02:33:59.966Z,63.31
2023-01-13T02:35:12.690Z,63.46
2023-01-13T02:36:39.362Z,63.69
2023-01-13T02:37:44.017Z,63.43
2023-01-13T02:38:57.784Z,63.87
2023-01-13T02:40:30.788Z,63.53
2023-01-13T02:41:59.528Z,63.27
2023-01-13T02:43:47.971Z,63.37
2023-01-13T02:45:29.092Z,63.60
2023-01-13T02:46:36.156Z,63.32
2023-01-13T02:47:42.489Z,63.52
2023-01-13T02:48:48.045Z,63.63
2023-01-13T02:50:02.807Z,63.69
2023-01-13T02:51:09.703Z,63.39
2023-01-13T02:52:34.409Z,63.29
2023-01-13T02:53:43.035Z,63.54
2023-01-13T02:54:51.614Z,62.88
2023-01-13T02:55:56.417Z,62.81
2023-01-13T02:57:01.119Z,62.60
2023-01-13T02:58:06.439Z,62.90
2023-01-13T02:59:09.491Z,62.70
2023-01-13T03:00:13.598Z,62.55
2023-01-13T03:01:15.416Z,62.64
2023-01-13T03:02:21.580Z,62.34
2023-01-13T03:03:23.790Z,62.08
2023-01-13T03:04:49.703Z,62.57
2023-01-13T03:05:55.139Z,62.31
2023-01-13T03:07:31.073Z,62.71
2023-01-13T03:08:55.037Z,62.30
2023-01-13T03:10:25.243Z,62.46
2023-01-13T03:11:33.651Z,62.45
2023-01-13T03:12:38.099Z,62.40
2023-01-13T03:13:47.789Z,62.60
2023-01-13T03:14:58.283Z,63.08
2023-01-13T03:16:06.333Z,62.73
2023-01-13T03:17:13.848Z,62.98
2023-01-13T03:18:36.070Z,62.45
2023-01-13T03:19:53.970Z,63.21
2023-01-13T03:21:28.101Z,62.73
2023-01-13T03:22:41.255Z,62.48
2023-01-13T03:23:58.956Z,62.92
2023-01-13T03:25:29.981Z,63.17
2023-01-13T03:26:56.798Z,62.93
2023-01-13T03:28:06.957Z,63.01
2023-01-13T03:29:31.831Z,63.01
2023-01-13T03:30:48.590Z,62.61
2023-01-13T03:32:12.685Z,63.34
2023-01-13T03:33:24.214Z,63.15
2023-01-13T03:34:37.333Z,62.88
2023-01-13T03:35:44.052Z,62.99
2023-01-13T03:36:51.250Z,63.00
2023-01-13T03:38:00.523Z,63.36
2023-01-13T03:39:11.682Z,63.52
2023-01-13T03:40:18.731Z,63.21
2023-01-13T03:41:30.414Z,63.13
2023-01-13T03:42:36.561Z,63.13
2023-01-13T03:44:02.445Z,63.26
2023-01-13T03:45:12.617Z,62.79
2023-01-13T03:46:29.911Z,62.96
2023-01-13T03:47:36.861Z,63.01
2023-01-13T03:48:43.673Z,62.48
2023-01-13T03:49:53.724Z,63.21
2023-01-13T03:51:03.069Z,63.06
2023-01-13T03:52:10.028Z,63.09
2023-01-13T03:53:19.016Z,62.69
2023-01-13T03:54:23.937Z,62.81
2023-01-13T03:55:31.931Z,62.70
2023-01-13T03:56:43.448Z,62.81
2023-01-13T03:58:29.255Z,62.67
2023-01-13T03:59:38.447Z,62.50
2023-01-13T04:01:00.351Z,62.63
2023-01-13T04:02:14.505Z,62.40
2023-01-13T04:03:34.212Z,62.22
2023-01-13T04:04:52.260Z,62.39
2023-01-13T04:06:04.334Z,62.43
2023-01-13T04:07:15.768Z,62.61
2023-01-13T04:08:22.087Z,62.59
2023-01-13T04:09:29.607Z,62.38
2023-01-13T04:10:47.890Z,62.65
2023-01-13T04:11:54.812Z,62.44
2023-01-13T04:13:02.674Z,62.36
2023-01-13T04:14:08.507Z,62.72
2023-01-13T04:15:10.673Z,62.71
2023-01-13T04:16:13.334Z,63.10
2023-01-13T04:17:16.565Z,62.80
2023-01-13T04:18:22.445Z,62.95
2023-01-13T04:19:24.221Z,62.63
2023-01-13T04:20:25.922Z,63.18
2023-01-13T04:21:28.402Z,63.01
2023-01-13T04:22:30.127Z,62.75
2023-01-13T04:23:32.832Z,61.91
2023-01-13T04:24:34.546Z,62.32
2023-01-13T04:25:36.841Z,62.03
2023-01-13T04:26:38.600Z,62.29
2023-01-13T04:27:40.287Z,62.14
2023-01-13T04:28:41.970Z,61.94
2023-01-13T04:29:43.682Z,61.96
2023-01-13T04:30:46.022Z,61.90
2023-01-13T04:31:47.746Z,61.53
2023-01-13T04:32:49.471Z,61.05
2023-01-13T04:33:51.211Z,61.46
2023-01-13T04:34:52.970Z,61.49
2023-01-13T04:35:55.308Z,61.55
2023-01-13T04:36:57.051Z,61.66
2023-01-13T04:38:12.079Z,61.73
2023-01-13T04:39:13.842Z,61.64
2023-01-13T04:40:15.985Z,61.59
2023-01-13T04:41:17.692Z,62.00
2023-01-13T04:42:19.413Z,61.61
2023-01-13T04:43:21.295Z,61.83
2023-01-13T04:44:23.044Z,61.66
2023-01-13T04:45:24.942Z,61.97
2023-01-13T04:46:26.829Z,61.45
2023-01-13T04:47:28.607Z,61.38
2023-01-13T04:48:30.316Z,61.61
2023-01-13T04:49:32.047Z,61.23
2023-01-13T04:50:34.094Z,61.82
2023-01-13T04:51:35.811Z,61.79
2023-01-13T04:52:38.519Z,61.44
2023-01-13T04:53:40.235Z,61.80
2023-01-13T04:54:41.963Z,61.43
2023-01-13T04:55:44.604Z,61.76
2023-01-13T04:56:46.371Z,61.65
2023-01-13T04:57:48.120Z,61.21
2023-01-13T04:58:49.821Z,60.83
2023-01-13T04:59:52.176Z,60.87
2023-01-13T05:00:55.102Z,60.99
2023-01-13T05:01:56.911Z,61.17
2023-01-13T05:02:59.639Z,61.25
2023-01-13T05:04:01.357Z,60.92
2023-01-13T05:05:03.255Z,61.45
2023-01-13T05:06:05.121Z,60.99
2023-01-13T05:07:06.889Z,61.45
2023-01-13T05:08:09.213Z,61.20
2023-01-13T05:09:12.527Z,60.68
2023-01-13T05:10:14.414Z,60.80
2023-01-13T05:11:34.945Z,60.66
2023-01-13T05:12:55.507Z,60.92
2023-01-13T05:14:16.050Z,60.86
2023-01-13T05:15:36.553Z,60.74
2023-01-13T05:16:56.980Z,61.21
2023-01-13T05:17:59.133Z,60.96
2023-01-13T05:19:00.848Z,60.81
2023-01-13T05:20:02.729Z,60.76
2023-01-13T05:21:04.445Z,61.00
2023-01-13T05:22:24.661Z,60.89
2023-01-13T05:23:45.242Z,60.66
2023-01-13T05:25:05.844Z,60.30
2023-01-13T05:26:07.759Z,60.35
2023-01-13T05:27:09.937Z,60.53
2023-01-13T05:28:11.822Z,60.21
2023-01-13T05:29:13.618Z,60.63
2023-01-13T05:30:15.868Z,60.81
2023-01-13T05:31:17.590Z,59.95
2023-01-13T05:32:19.747Z,60.08
2023-01-13T05:33:21.550Z,60.31
2023-01-13T05:34:23.283Z,60.34
2023-01-13T05:35:25.246Z,60.13
2023-01-13T05:36:26.946Z,59.97
2023-01-13T05:37:28.759Z,60.19
2023-01-13T05:38:30.491Z,59.91
2023-01-13T05:39:52.140Z,60.10
2023-01-13T05:41:12.248Z,60.44
2023-01-13T05:42:34.183Z,60.55
2023-01-13T05:43:36.026Z,60.35
2023-01-13T05:44:37.898Z,59.98
2023-01-13T05:45:39.607Z,60.39
2023-01-13T05:46:42.120Z,60.59
2023-01-13T05:47:43.879Z,60.72
2023-01-13T05:48:45.860Z,60.64
2023-01-13T05:49:47.560Z,60.51
2023-01-13T05:50:49.741Z,60.74
2023-01-13T05:51:51.467Z,60.18
2023-01-13T05:52:53.156Z,60.50
2023-01-13T05:53:54.938Z,60.55
2023-01-13T05:54:56.629Z,60.56
2023-01-13T05:55:58.565Z,60.18
2023-01-13T05:57:00.268Z,60.53
2023-01-13T05:58:02.025Z,60.57
2023-01-13T05:59:04.662Z,60.30
2023-01-13T06:00:07.116Z,60.90
2023-01-13T06:01:09.704Z,60.55
2023-01-13T06:02:11.461Z,60.39
2023-01-13T06:03:14.438Z,60.23
2023-01-13T06:04:16.301Z,60.24
2023-01-13T06:05:18.003Z,60.09
2023-01-13T06:06:19.689Z,60.25
2023-01-13T06:07:21.392Z,60.11
2023-01-13T06:08:23.097Z,60.43
2023-01-13T06:09:24.925Z,60.61
2023-01-13T06:10:27.746Z,60.49
2023-01-13T06:11:29.433Z,60.35
2023-01-13T06:12:31.115Z,60.34
2023-01-13T06:13:32.839Z,60.49
2023-01-13T06:14:40.238Z,60.87
2023-01-13T06:15:42.042Z,60.70
2023-01-13T06:16:45.683Z,60.82
2023-01-13T06:17:47.395Z,61.25
2023-01-13T06:18:49.086Z,61.15
2023-01-13T06:19:51.282Z,61.07
2023-01-13T06:20:53.124Z,61.01
2023-01-13T06:21:57.936Z,61.43
2023-01-13T06:23:00.558Z,61.14
2023-01-13T06:24:02.248Z,61.14
2023-01-13T06:25:04.550Z,61.35
2023-01-13T06:26:16.100Z,60.96
2023-01-13T06:27:18.458Z,61.41
2023-01-13T06:28:20.282Z,60.94
2023-01-13T06:29:21.982Z,61.35
2023-01-13T06:30:23.855Z,61.22
2023-01-13T06:31:26.364Z,61.36
2023-01-13T06:32:33.726Z,61.55
2023-01-13T06:33:49.515Z,61.67
2023-01-13T06:34:58.578Z,61.49
2023-01-13T06:36:06.157Z,61.68
2023-01-13T06:37:07.985Z,61.86
2023-01-13T06:38:13.366Z,62.03
2023-01-13T06:39:19.068Z,62.20
2023-01-13T06:40:21.396Z,62.37
2023-01-13T06:41:44.283Z,62.41
2023-01-13T06:43:04.604Z,62.55
2023-01-13T06:44:06.325Z,63.00
2023-01-13T06:45:08.720Z,62.61
2023-01-13T06:46:10.500Z,62.48
2023-01-13T06:47:12.275Z,62.84
2023-01-13T06:48:14.466Z,62.68
2023-01-13T06:49:16.189Z,62.70
2023-01-13T06:50:19.039Z,62.75
2023-01-13T06:51:20.866Z,62.66
2023-01-13T06:52:23.647Z,62.53
2023-01-13T06:53:25.457Z,62.59
2023-01-13T06:54:27.891Z,63.05
2023-01-13T06:55:29.702Z,63.03
2023-01-13T06:56:31.459Z,63.18
2023-01-13T06:57:33.207Z,63.26
2023-01-13T06:58:34.966Z,62.98
2023-01-13T06:59:36.712Z,63.06
2023-01-13T07:00:38.636Z,63.04
2023-01-13T07:01:40.565Z,63.27
2023-01-13T07:02:42.367Z,63.15
2023-01-13T07:03:44.124Z,62.84
2023-01-13T07:04:46.904Z,62.75
2023-01-13T07:05:56.162Z,62.92
2023-01-13T07:06:57.903Z,62.91
2023-01-13T07:07:59.672Z,62.63
2023-01-13T07:09:01.359Z,62.41
2023-01-13T07:10:04.011Z,61.83
2023-01-13T07:11:06.014Z,62.23
2023-01-13T07:12:07.991Z,62.38
2023-01-13T07:13:28.551Z,62.34
2023-01-13T07:14:49.153Z,62.08
2023-01-13T07:15:59.025Z,61.61
2023-01-13T07:17:00.832Z,62.63
2023-01-13T07:18:03.294Z,62.53
2023-01-13T07:19:04.999Z,62.14
2023-01-13T07:20:07.549Z,62.28
2023-01-13T07:21:12.080Z,62.39
2023-01-13T07:22:14.066Z,62.30
2023-01-13T07:23:15.760Z,61.44
2023-01-13T07:24:17.594Z,61.82
2023-01-13T07:25:19.333Z,61.48
2023-01-13T07:26:21.138Z,61.89
2023-01-13T07:27:22.861Z,62.10
2023-01-13T07:28:25.802Z,61.87
2023-01-13T07:29:27.509Z,62.00
2023-01-13T07:30:29.304Z,61.46
2023-01-13T07:31:31.141Z,61.83
2023-01-13T07:32:33.827Z,61.73
2023-01-13T07:33:35.687Z,61.41
2023-01-13T07:34:37.439Z,61.66
2023-01-13T07:35:39.203Z,61.69
2023-01-13T07:36:40.908Z,61.86
2023-01-13T07:37:42.624Z,61.49
2023-01-13T07:38:44.832Z,61.50
2023-01-13T07:39:46.531Z,61.63
2023-01-13T07:40:48.234Z,61.74
2023-01-13T07:42:08.553Z,61.77
2023-01-13T07:43:31.409Z,61.95
2023-01-13T07:44:33.193Z,61.89
2023-01-13T07:45:34.931Z,61.63
2023-01-13T07:46:37.776Z,61.78
2023-01-13T07:47:40.097Z,61.45
2023-01-13T07:48:41.935Z,61.78
2023-01-13T07:49:43.633Z,60.91
2023-01-13T07:50:45.353Z,61.48
2023-01-13T07:51:48.321Z,61.08
2023-01-13T07:52:51.251Z,61.28
2023-01-13T07:53:52.980Z,61.19
2023-01-13T07:54:54.752Z,61.25
2023-01-13T07:55:57.902Z,61.20
2023-01-13T07:56:59.627Z,61.07
2023-01-13T07:58:01.332Z,60.89
2023-01-13T07:59:03.323Z,60.87
2023-01-13T08:00:05.702Z,60.96
2023-01-13T08:01:09.639Z,61.18
2023-01-13T08:02:13.260Z,60.36
2023-01-13T08:03:15.022Z,60.50
2023-01-13T08:04:16.751Z,60.70
2023-01-13T08:05:18.619Z,60.35
2023-01-13T08:06:20.320Z,60.07
2023-01-13T08:07:22.109Z,60.29
2023-01-13T08:08:23.814Z,60.32
2023-01-13T08:09:25.560Z,60.51
2023-01-13T08:10:27.307Z,60.63
2023-01-13T08:11:29.282Z,60.52
2023-01-13T08:12:52.806Z,60.41
2023-01-13T08:13:57.989Z,60.11
2023-01-13T08:14:59.711Z,60.62
2023-01-13T08:16:06.634Z,60.55
2023-01-13T08:17:09.442Z,60.22
2023-01-13T08:18:12.085Z,60.24
2023-01-13T08:19:13.829Z,60.22
2023-01-13T08:20:15.888Z,60.40
2023-01-13T08:21:17.857Z,59.77
2023-01-13T08:22:19.559Z,59.93
2023-01-13T08:23:22.588Z,59.95
2023-01-13T08:24:24.441Z,60.06
2023-01-13T08:25:27.815Z,59.56
2023-01-13T08:26:29.516Z,59.54
2023-01-13T08:27:31.235Z,59.95
2023-01-13T08:28:33.188Z,60.02
2023-01-13T08:29:34.960Z,59.78
2023-01-13T08:30:36.857Z,60.34
2023-01-13T08:31:38.589Z,60.79
2023-01-13T08:32:40.313Z,60.33
2023-01-13T08:33:42.502Z,60.91
2023-01-13T08:34:44.236Z,59.91
2023-01-13T08:35:46.197Z,60.35
2023-01-13T08:36:50.354Z,59.67
2023-01-13T08:37:52.422Z,60.30
2023-01-13T08:38:54.167Z,60.69
2023-01-13T08:39:55.867Z,60.18
2023-01-13T08:40:57.805Z,59.53
2023-01-13T08:41:59.592Z,59.36
2023-01-13T08:43:01.557Z,59.69
2023-01-13T08:44:03.453Z,59.45
2023-01-13T08:45:06.502Z,59.40
2023-01-13T08:46:08.333Z,59.02
2023-01-13T08:47:10.217Z,58.94
2023-01-13T08:48:12.055Z,59.81
2023-01-13T08:49:13.778Z,59.95
2023-01-13T08:50:15.637Z,59.37
2023-01-13T08:51:17.383Z,58.84
2023-01-13T08:52:19.382Z,59.08
2023-01-13T08:53:21.169Z,58.63
2023-01-13T08:54:22.922Z,58.31
2023-01-13T08:55:24.713Z,57.87
2023-01-13T08:56:26.432Z,58.34
2023-01-13T08:57:28.921Z,57.77
2023-01-13T08:58:30.692Z,57.73
2023-01-13T08:59:32.696Z,57.66
2023-01-13T09:00:34.437Z,58.20
2023-01-13T09:01:36.235Z,58.92
2023-01-13T09:02:38.713Z,59.70
2023-01-13T09:03:41.957Z,59.35
2023-01-13T09:04:45.171Z,59.63
2023-01-13T09:05:47.023Z,59.32
2023-01-13T09:06:49.537Z,59.79
2023-01-13T09:07:51.234Z,59.01
2023-01-13T09:08:52.989Z,59.23
2023-01-13T09:09:56.879Z,58.81
2023-01-13T09:10:58.738Z,57.93
2023-01-13T09:12:18.996Z,58.16
2023-01-13T09:13:21.930Z,58.35
2023-01-13T09:14:26.863Z,58.17
2023-01-13T09:15:28.732Z,57.94
2023-01-13T09:16:30.565Z,58.85
2023-01-13T09:17:32.343Z,58.03
2023-01-13T09:18:34.032Z,57.84
2023-01-13T09:19:36.076Z,58.37
2023-01-13T09:20:38.269Z,57.30
2023-01-13T09:21:40.071Z,57.92
2023-01-13T09:22:41.891Z,58.08
2023-01-13T09:23:43.593Z,58.45
2023-01-13T09:24:46.398Z,58.44
2023-01-13T09:25:49.293Z,57.84
2023-01-13T09:26:51.530Z,57.62
2023-01-13T09:27:53.277Z,59.53
2023-01-13T09:28:55.475Z,57.40
2023-01-13T09:29:57.189Z,56.79
2023-01-13T09:31:01.404Z,56.13
2023-01-13T09:32:03.625Z,56.51
2023-01-13T09:33:23.787Z,56.59
2023-01-13T09:35:04.081Z,56.96
2023-01-13T09:36:06.254Z,56.56
2023-01-13T09:37:08.522Z,56.36
2023-01-13T09:38:10.242Z,56.43
2023-01-13T09:39:11.992Z,55.86
2023-01-13T09:40:19.618Z,55.92
2023-01-13T09:41:46.136Z,55.43
2023-01-13T09:43:40.075Z,55.32
2023-01-13T09:44:58.137Z,55.20
2023-01-13T09:46:05.924Z,55.32
2023-01-13T09:47:18.098Z,55.27
2023-01-13T09:48:26.869Z,55.50
2023-01-13T09:49:39.106Z,55.33
2023-01-13T09:50:53.039Z,54.99
2023-01-13T09:52:15.201Z,54.76
2023-01-13T09:53:24.752Z,54.07
2023-01-13T09:54:35.323Z,54.99
2023-01-13T09:55:37.223Z,54.63
2023-01-13T09:56:38.978Z,54.71
2023-01-13T09:57:41.094Z,55.21
2023-01-13T09:58:45.692Z,54.68
2023-01-13T09:59:48.802Z,54.97
2023-01-13T10:01:19.002Z,54.68
2023-01-13T10:02:48.411Z,55.29
2023-01-13T10:03:50.311Z,54.05
2023-01-13T10:05:13.965Z,54.36
2023-01-13T10:06:34.976Z,54.51
2023-01-13T10:07:42.341Z,54.85
2023-01-13T10:08:46.027Z,54.64
2023-01-13T10:09:53.974Z,54.02
2023-01-13T10:11:24.282Z,54.61
2023-01-13T10:12:45.643Z,53.67
2023-01-13T10:13:51.065Z,53.71
2023-01-13T10:14:56.061Z,53.56
2023-01-13T10:16:24.404Z,53.37
2023-01-13T10:17:54.637Z,52.87
2023-01-13T10:19:06.700Z,53.20
2023-01-13T10:20:30.302Z,53.66
2023-01-13T10:21:53.303Z,53.51
2023-01-13T10:23:13.411Z,53.52
2023-01-13T10:24:30.127Z,52.74
2023-01-13T10:25:50.202Z,52.88
2023-01-13T10:27:05.649Z,52.93
2023-01-13T10:28:17.683Z,52.71
2023-01-13T10:29:28.813Z,52.35
2023-01-13T10:30:36.151Z,52.28
2023-01-13T10:31:37.858Z,52.29
2023-01-13T10:32:42.986Z,51.86
2023-01-13T10:33:44.680Z,50.84
2023-01-13T10:34:52.059Z,51.18
2023-01-13T10:36:15.775Z,51.03
2023-01-13T10:37:23.420Z,51.67
2023-01-13T10:38:35.669Z,51.31
2023-01-13T10:39:47.612Z,50.58
2023-01-13T10:41:02.257Z,50.17
2023-01-13T10:42:05.457Z,49.05
2023-01-13T10:43:07.215Z,50.61
2023-01-13T10:44:17.379Z,50.54
2023-01-13T10:45:25.271Z,49.64
2023-01-13T10:46:28.169Z,49.20
2023-01-13T10:47:35.910Z,48.88
2023-01-13T10:48:56.032Z,49.18
2023-01-13T10:50:13.134Z,49.07
2023-01-13T10:51:25.920Z,49.43
2023-01-13T10:52:33.269Z,49.46
2023-01-13T10:53:46.442Z,49.36
2023-01-13T10:54:57.187Z,49.54
2023-01-13T10:56:01.818Z,49.58
2023-01-13T10:57:14.781Z,49.26
2023-01-13T10:58:21.415Z,49.26
2023-01-13T10:59:27.013Z,48.58
2023-01-13T11:00:33.560Z,48.07
2023-01-13T11:01:35.460Z,48.24
2023-01-13T11:02:37.594Z,48.17
2023-01-13T11:03:43.163Z,48.17
2023-01-13T11:04:54.077Z,48.46
2023-01-13T11:05:58.279Z,48.81
2023-01-13T11:07:01.117Z,48.26
2023-01-13T11:08:02.936Z,48.64
2023-01-13T11:09:20.260Z,48.10
2023-01-13T11:10:31.434Z,48.14
2023-01-13T11:11:45.685Z,48.18
2023-01-13T11:12:59.467Z,47.73
2023-01-13T11:14:23.819Z,47.85
2023-01-13T11:15:38.666Z,48.00
2023-01-13T11:16:53.034Z,47.83
2023-01-13T11:18:01.749Z,48.18
2023-01-13T11:19:14.477Z,47.76
2023-01-13T11:20:23.653Z,47.99
2023-01-13T11:21:33.402Z,48.35
2023-01-13T11:22:45.143Z,48.11
2023-01-13T11:24:14.790Z,47.75
2023-01-13T11:25:33.890Z,47.23
2023-01-13T11:26:51.623Z,48.00
2023-01-13T11:28:01.012Z,47.77
2023-01-13T11:29:18.050Z,47.43
2023-01-13T11:30:29.830Z,47.14
2023-01-13T11:31:36.978Z,47.13
2023-01-13T11:33:08.845Z,48.06
2023-01-13T11:34:32.695Z,47.74
2023-01-13T11:35:40.826Z,48.16
2023-01-13T11:36:50.834Z,48.57
2023-01-13T11:37:59.184Z,46.90
2023-01-13T11:39:23.474Z,47.87
2023-01-13T11:40:32.924Z,47.46
2023-01-13T11:41:47.550Z,47.75
2023-01-13T11:43:04.475Z,47.64
2023-01-13T11:44:38.688Z,47.58
2023-01-13T11:45:44.503Z,47.56
2023-01-13T11:46:49.994Z,48.52
2023-01-13T11:47:57.761Z,47.83
2023-01-13T11:49:01.035Z,47.92
2023-01-13T11:50:03.414Z,47.44
2023-01-13T11:51:13.926Z,47.45
2023-01-13T11:52:31.225Z,47.93
2023-01-13T11:53:54.068Z,47.89
2023-01-13T11:55:22.531Z,47.94
2023-01-13T11:57:02.403Z,47.85
2023-01-13T11:58:24.020Z,47.85
2023-01-13T11:59:50.639Z,48.21
2023-01-13T12:01:36.870Z,49.17
2023-01-13T12:03:17.295Z,48.55
2023-01-13T12:04:28.237Z,49.56
2023-01-13T12:05:48.344Z,49.02
2023-01-13T12:07:23.291Z,49.12
2023-01-13T12:08:48.083Z,49.94
2023-01-13T12:10:01.571Z,49.35
2023-01-13T12:11:15.196Z,49.87
2023-01-13T12:12:40.924Z,49.54
2023-01-13T12:14:20.640Z,49.31
2023-01-13T12:15:22.600Z,49.51
2023-01-13T12:16:30.656Z,49.49
2023-01-13T12:18:10.217Z,49.40
2023-01-13T12:19:29.932Z,49.79
2023-01-13T12:21:03.948Z,49.77
2023-01-13T12:22:28.140Z,50.61
2023-01-13T12:24:06.119Z,50.51
2023-01-13T12:25:21.401Z,51.00
2023-01-13T12:26:23.746Z,50.60
2023-01-13T12:27:37.733Z,50.24
2023-01-13T12:28:51.569Z,50.23
2023-01-13T12:29:57.165Z,50.62
2023-01-13T12:31:02.076Z,50.66
2023-01-13T12:32:07.976Z,50.41
2023-01-13T12:33:22.077Z,50.09
2023-01-13T12:34:34.077Z,50.27
2023-01-13T12:36:17.482Z,49.84
2023-01-13T12:37:46.259Z,50.10
2023-01-13T12:38:59.641Z,49.98
2023-01-13T12:40:13.556Z,49.76
2023-01-13T12:42:05.929Z,50.46
2023-01-13T12:43:40.737Z,50.58
2023-01-13T12:45:10.259Z,50.34
2023-01-13T12:46:23.787Z,50.26
2023-01-13T12:47:41.529Z,50.21
2023-01-13T12:48:56.834Z,50.40
2023-01-13T12:50:23.946Z,50.01
2023-01-13T12:51:54.615Z,50.34
2023-01-13T12:53:01.216Z,50.85
2023-01-13T12:54:25.621Z,51.02
2023-01-13T12:55:30.027Z,51.13
2023-01-13T12:56:45.394Z,50.38
2023-01-13T12:58:05.945Z,49.83
2023-01-13T12:59:17.043Z,50.29
2023-01-13T13:00:19.339Z,50.29
2023-01-13T13:01:35.793Z,49.79
2023-01-13T13:02:42.673Z,49.74
2023-01-13T13:04:41.469Z,49.66
2023-01-13T13:06:07.972Z,49.74
2023-01-13T13:07:15.699Z,49.53
2023-01-13T13:08:37.106Z,49.76
2023-01-13T13:09:43.209Z,49.24
2023-01-13T13:11:32.412Z,49.50
2023-01-13T13:13:01.691Z,49.84
2023-01-13T13:14:06.297Z,50.63
2023-01-13T13:15:21.759Z,50.78
2023-01-13T13:16:26.574Z,51.07
2023-01-13T13:17:31.906Z,50.41
2023-01-13T13:18:34.024Z,49.82
2023-01-13T13:19:35.663Z,49.79
2023-01-13T13:20:56.427Z,50.04
2023-01-13T13:22:13.743Z,50.40
2023-01-13T13:23:40.437Z,50.93
2023-01-13T13:25:03.543Z,51.03
2023-01-13T13:26:20.440Z,51.42
2023-01-13T13:27:37.137Z,50.81
2023-01-13T13:28:48.023Z,50.68
2023-01-13T13:30:00.641Z,51.09
2023-01-13T13:31:40.432Z,50.97
2023-01-13T13:32:47.981Z,50.91
2023-01-13T13:34:20.039Z,51.77
2023-01-13T13:35:27.500Z,51.71
2023-01-13T13:37:07.148Z,51.32
2023-01-13T13:38:45.674Z,51.50
2023-01-13T13:40:06.641Z,51.63
2023-01-13T13:41:38.351Z,51.37
2023-01-13T13:43:03.443Z,51.27
2023-01-13T13:44:48.431Z,51.23
2023-01-13T13:46:11.537Z,51.75
2023-01-13T13:47:13.389Z,51.74
2023-01-13T13:48:24.088Z,52.00
2023-01-13T13:49:41.361Z,52.11
2023-01-13T13:50:47.872Z,52.04
2023-01-13T13:52:02.974Z,52.14
2023-01-13T13:53:08.557Z,52.25
2023-01-13T13:54:17.605Z,51.79
2023-01-13T13:55:20.584Z,51.63
2023-01-13T13:56:26.009Z,51.71
2023-01-13T13:57:35.225Z,51.57
2023-01-13T13:58:37.317Z,51.49
2023-01-13T13:59:40.117Z,52.20
2023-01-13T14:00:48.493Z,51.19
2023-01-13T14:02:01.642Z,51.47
2023-01-13T14:03:07.807Z,51.69
2023-01-13T14:04:22.601Z,52.39
2023-01-13T14:05:29.587Z,52.12
2023-01-13T14:06:32.942Z,52.22
2023-01-13T14:07:46.058Z,52.07
2023-01-13T14:08:50.550Z,52.28
2023-01-13T14:09:54.463Z,52.65
2023-01-13T14:10:56.540Z,52.14
2023-01-13T14:12:03.564Z,52.61
2023-01-13T14:13:25.945Z,52.63
2023-01-13T14:14:28.144Z,52.35
2023-01-13T14:15:33.853Z,52.70
2023-01-13T14:16:39.908Z,52.60
2023-01-13T14:17:41.618Z,52.30
2023-01-13T14:18:47.868Z,52.95
2023-01-13T14:20:17.773Z,52.54
2023-01-13T14:21:28.257Z,52.19
2023-01-13T14:22:30.005Z,52.33
2023-01-13T14:23:33.516Z,52.53
2023-01-13T14:24:46.969Z,52.78
2023-01-13T14:25:51.470Z,52.71
2023-01-13T14:26:53.797Z,52.92
2023-01-13T14:27:59.915Z,53.18
2023-01-13T14:29:02.768Z,53.41
2023-01-13T14:30:05.022Z,53.01
2023-01-13T14:31:09.620Z,53.64
2023-01-13T14:32:17.451Z,53.39
2023-01-13T14:33:24.340Z,53.14
2023-01-13T14:34:32.930Z,53.42
2023-01-13T14:35:34.850Z,52.83
2023-01-13T14:36:37.932Z,53.41
2023-01-13T14:37:41.871Z,53.84
2023-01-13T14:38:47.560Z,53.49
2023-01-13T14:39:49.284Z,53.48
2023-01-13T14:40:51.106Z,54.30
2023-01-13T14:41:53.584Z,53.83
2023-01-13T14:43:22.830Z,53.70
2023-01-13T14:44:32.376Z,54.00
2023-01-13T14:45:34.099Z,54.06